createdAt,value
2023-03-06T00:01:07.316Z,9.57
2023-03-06T00:04:11.080Z,14.50
2023-03-06T00:07:16.167Z,16.43
2023-03-06T00:10:21.714Z,13.57
2023-03-06T00:13:30.266Z,18.53
2023-03-06T00:16:34.112Z,12.67
2023-03-06T00:19:37.915Z,16.97
2023-03-06T00:22:43.687Z,12.13
2023-03-06T00:25:47.904Z,16.07
2023-03-06T00:28:51.573Z,16.37
2023-03-06T00:31:55.265Z,16.17
2023-03-06T00:34:58.954Z,13.43
2023-03-06T00:38:04.087Z,10.33
2023-03-06T00:41:11.098Z,15.27
2023-03-06T00:44:14.867Z,17.10
2023-03-06T00:47:18.428Z,17.80
2023-03-06T00:50:22.139Z,13.73
2023-03-06T00:53:27.448Z,17.33
2023-03-06T00:56:31.319Z,11.77
2023-03-06T00:59:35.453Z,12.30
2023-03-06T01:02:39.218Z,14.67
2023-03-06T01:05:42.897Z,12.37
2023-03-06T01:08:47.989Z,23.57
2023-03-06T01:11:51.722Z,16.43
2023-03-06T01:14:55.389Z,14.47
2023-03-06T01:17:59.038Z,11.50
2023-03-06T01:21:02.619Z,16.10
2023-03-06T01:24:08.216Z,19.60
2023-03-06T01:27:11.825Z,17.87
2023-03-06T01:30:15.746Z,13.10
2023-03-06T01:33:19.509Z,17.13
2023-03-06T01:36:23.181Z,15.20
2023-03-06T01:39:28.947Z,13.77
2023-03-06T01:42:32.778Z,12.77
2023-03-06T01:46:13.404Z,14.40
2023-03-06T01:49:21.957Z,13.97
2023-03-06T01:52:30.467Z,16.07
2023-03-06T01:55:38.096Z,15.23
2023-03-06T01:58:43.912Z,19.03
2023-03-06T02:01:48.626Z,21.50
2023-03-06T02:04:52.643Z,13.13
2023-03-06T02:07:56.728Z,17.57
2023-03-06T02:11:08.030Z,19.33
2023-03-06T02:14:14.210Z,16.73
2023-03-06T02:17:21.171Z,15.40
2023-03-06T02:20:30.687Z,14.63
2023-03-06T02:23:42.678Z,12.23
2023-03-06T02:26:49.200Z,20.13
2023-03-06T02:29:53.320Z,18.80
2023-03-06T02:32:57.233Z,15.93
2023-03-06T02:36:03.070Z,16.90
2023-03-06T02:39:07.507Z,18.77
2023-03-06T02:42:19.527Z,16.97
2023-03-06T02:45:27.725Z,17.17
2023-03-06T02:48:31.481Z,18.63
2023-03-06T02:51:36.050Z,16.47
2023-03-06T02:54:39.748Z,14.47
2023-03-06T02:57:45.803Z,20.47
2023-03-06T03:00:51.485Z,15.63
2023-03-06T03:03:56.677Z,17.00
2023-03-06T03:07:00.805Z,18.47
2023-03-06T03:10:05.519Z,16.13
2023-03-06T03:13:11.041Z,18.97
2023-03-06T03:16:16.777Z,16.63
2023-03-06T03:19:20.389Z,18.00
2023-03-06T03:22:24.347Z,16.67
2023-03-06T03:25:28.159Z,19.10
2023-03-06T03:28:35.764Z,23.60
2023-03-06T03:31:39.713Z,18.17
2023-03-06T03:34:43.439Z,20.17
2023-03-06T03:37:47.098Z,18.73
2023-03-06T03:40:51.370Z,18.20
2023-03-06T03:43:56.436Z,14.97
2023-03-06T03:47:00.708Z,19.40
2023-03-06T03:50:04.942Z,18.17
2023-03-06T03:53:08.846Z,18.40
2023-03-06T03:56:13.344Z,18.23
2023-03-06T03:59:27.471Z,18.23
2023-03-06T04:02:50.211Z,22.33
2023-03-06T04:06:02.940Z,18.60
2023-03-06T04:09:06.944Z,17.00
2023-03-06T04:12:12.031Z,19.40
2023-03-06T04:15:17.091Z,18.80
2023-03-06T04:18:24.211Z,21.20
2023-03-06T04:21:30.389Z,22.07
2023-03-06T04:24:34.223Z,20.80
2023-03-06T04:27:38.113Z,19.63
2023-03-06T04:30:44.385Z,20.47
2023-03-06T04:33:48.076Z,17.03
2023-03-06T04:36:52.442Z,20.13
2023-03-06T04:39:56.175Z,15.53
2023-03-06T04:43:01.602Z,21.70
2023-03-06T04:46:07.036Z,19.27
2023-03-06T04:49:10.684Z,18.10
2023-03-06T04:52:14.251Z,17.63
2023-03-06T04:55:18.478Z,20.00
2023-03-06T04:58:22.251Z,17.90
2023-03-06T05:01:27.436Z,16.83
2023-03-06T05:04:31.101Z,18.80
2023-03-06T05:07:34.654Z,17.87
2023-03-06T05:10:38.478Z,21.53
2023-03-06T05:13:42.124Z,21.33
2023-03-06T05:16:47.465Z,16.00
2023-03-06T05:19:51.066Z,20.40
2023-03-06T05:22:54.733Z,17.37
2023-03-06T05:25:58.686Z,17.60
2023-03-06T05:29:02.489Z,16.60
2023-03-06T05:32:08.246Z,20.17
2023-03-06T05:35:18.998Z,22.73
2023-03-06T05:38:23.327Z,19.67
2023-03-06T05:41:26.974Z,18.50
2023-03-06T05:44:33.581Z,18.07
2023-03-06T05:47:38.722Z,18.10
2023-03-06T05:50:42.435Z,17.83
2023-03-06T05:53:46.199Z,20.23
2023-03-06T05:56:50.560Z,17.87
2023-03-06T05:59:54.468Z,18.27
2023-03-06T06:03:02.526Z,19.73
2023-03-06T06:06:07.131Z,20.13
2023-03-06T06:09:13.773Z,18.83
2023-03-06T06:12:17.672Z,22.03
2023-03-06T06:15:21.450Z,18.20
2023-03-06T06:18:26.724Z,19.27
2023-03-06T06:21:30.581Z,21.77
2023-03-06T06:24:34.457Z,18.73
2023-03-06T06:27:38.215Z,17.33
2023-03-06T06:30:42.009Z,19.60
2023-03-06T06:33:47.414Z,18.00
2023-03-06T06:36:53.511Z,18.70
2023-03-06T06:39:57.615Z,21.37
2023-03-06T06:43:01.480Z,18.43
2023-03-06T06:46:36.463Z,19.43
2023-03-06T06:49:31.266Z,17.80
2023-03-06T06:52:35.600Z,18.10
2023-03-06T06:55:39.423Z,18.93
2023-03-06T06:58:43.138Z,16.60
2023-03-06T07:01:47.066Z,17.13
2023-03-06T07:05:04.265Z,20.87
2023-03-06T07:08:09.278Z,19.03
2023-03-06T07:11:15.198Z,20.13
2023-03-06T07:14:19.211Z,20.43
2023-03-06T07:17:25.534Z,18.10
2023-03-06T07:20:32.199Z,18.23
2023-03-06T07:23:36.261Z,20.40
2023-03-06T07:26:40.112Z,16.83
2023-03-06T07:29:45.047Z,15.27
2023-03-06T07:32:48.920Z,24.40
2023-03-06T07:35:54.387Z,24.03
2023-03-06T07:38:58.201Z,20.13
2023-03-06T07:42:02.220Z,23.30
2023-03-06T07:45:08.164Z,18.43
2023-03-06T07:48:12.030Z,20.93
2023-03-06T07:51:19.022Z,16.83
2023-03-06T07:54:22.968Z,15.30
2023-03-06T07:57:26.955Z,22.03
2023-03-06T08:00:30.848Z,15.67
2023-03-06T08:03:35.183Z,18.53
2023-03-06T08:06:40.501Z,18.13
2023-03-06T08:09:44.313Z,17.90
2023-03-06T08:12:48.224Z,18.47
2023-03-06T08:15:52.131Z,16.80
2023-03-06T08:18:56.380Z,20.23
2023-03-06T08:22:01.674Z,18.83
2023-03-06T08:25:06.789Z,17.00
2023-03-06T08:28:10.636Z,18.90
2023-03-06T08:31:22.612Z,20.07
2023-03-06T08:34:27.335Z,16.63
2023-03-06T08:37:32.600Z,20.57
2023-03-06T08:40:36.442Z,22.07
2023-03-06T08:43:40.622Z,16.33
2023-03-06T08:46:44.501Z,22.80
2023-03-06T08:49:48.403Z,22.50
2023-03-06T08:52:53.663Z,16.87
2023-03-06T08:55:57.589Z,22.50
2023-03-06T08:59:04.266Z,17.87
2023-03-06T09:02:08.181Z,20.27
2023-03-06T09:05:12.469Z,19.10
2023-03-06T09:08:18.249Z,21.67
2023-03-06T09:11:27.331Z,19.73
2023-03-06T09:14:32.545Z,17.93
2023-03-06T09:18:06.815Z,20.37
2023-03-06T09:21:11.438Z,19.27
2023-03-06T09:24:16.894Z,16.80
2023-03-06T09:27:20.721Z,19.70
2023-03-06T09:30:24.633Z,21.17
2023-03-06T09:33:28.922Z,24.63
2023-03-06T09:36:42.788Z,20.23
2023-03-06T09:39:54.686Z,20.80
2023-03-06T09:42:58.551Z,19.67
2023-03-06T09:46:02.789Z,21.23
2023-03-06T09:49:17.152Z,16.67
2023-03-06T09:52:38.858Z,20.17
2023-03-06T09:55:47.604Z,22.80
2023-03-06T09:58:55.126Z,24.27
2023-03-06T10:02:03.254Z,20.17
2023-03-06T10:05:12.425Z,19.53
2023-03-06T10:08:25.505Z,22.93
2023-03-06T10:11:38.224Z,19.63
2023-03-06T10:14:48.465Z,19.47
2023-03-06T10:17:53.446Z,22.00
2023-03-06T10:21:16.928Z,18.97
2023-03-06T10:24:43.684Z,18.90
2023-03-06T10:27:51.051Z,20.13
2023-03-06T10:31:04.056Z,15.07
2023-03-06T10:34:20.979Z,19.13
2023-03-06T10:37:25.030Z,16.70
2023-03-06T10:40:39.928Z,16.53
2023-03-06T10:43:46.979Z,13.63
2023-03-06T10:46:52.873Z,13.77
2023-03-06T10:50:06.668Z,17.13
2023-03-06T10:53:22.712Z,13.83
2023-03-06T10:56:32.046Z,16.20
2023-03-06T10:59:51.957Z,16.73
2023-03-06T11:03:07.989Z,18.33
2023-03-06T11:06:14.588Z,15.37
2023-03-06T11:09:23.802Z,19.40
2023-03-06T11:12:29.904Z,20.40
2023-03-06T11:15:35.466Z,20.43
2023-03-06T11:18:42.388Z,19.33
2023-03-06T11:22:01.743Z,18.03
2023-03-06T11:25:06.992Z,22.47
2023-03-06T11:28:20.090Z,16.17
2023-03-06T11:31:30.326Z,18.53
2023-03-06T11:34:41.911Z,14.23
2023-03-06T11:37:51.532Z,15.30
2023-03-06T11:40:57.746Z,14.87
2023-03-06T11:44:07.664Z,21.10
2023-03-06T11:47:44.895Z,15.30
2023-03-06T11:50:51.267Z,14.83
2023-03-06T11:53:56.624Z,14.10
2023-03-06T11:57:03.754Z,10.73
2023-03-06T12:00:22.738Z,12.50
2023-03-06T12:03:57.502Z,14.20
2023-03-06T12:07:11.382Z,13.77
2023-03-06T12:10:20.582Z,13.87
2023-03-06T12:13:50.241Z,12.90
2023-03-06T12:17:09.596Z,12.33
2023-03-06T12:20:31.970Z,12.73
2023-03-06T12:23:57.988Z,13.27
2023-03-06T12:27:15.209Z,11.77
2023-03-06T12:30:50.062Z,13.33
2023-03-06T12:34:07.298Z,10.10
2023-03-06T12:37:23.270Z,15.70
2023-03-06T12:40:47.123Z,14.43
2023-03-06T12:44:15.876Z,11.83
2023-03-06T12:47:23.299Z,10.60
2023-03-06T12:50:30.347Z,11.53
2023-03-06T12:53:51.528Z,11.83
2023-03-06T12:56:58.264Z,9.83
2023-03-06T13:00:02.151Z,11.50
2023-03-06T13:03:19.189Z,10.87
2023-03-06T13:06:56.018Z,10.90
2023-03-06T13:10:10.338Z,17.17
2023-03-06T13:13:33.192Z,9.50
2023-03-06T13:16:37.032Z,12.90
2023-03-06T13:19:40.795Z,11.57
2023-03-06T13:22:45.863Z,12.50
2023-03-06T13:25:52.304Z,8.87
2023-03-06T13:28:58.430Z,10.00
2023-03-06T13:32:18.460Z,10.03
2023-03-06T13:35:49.979Z,10.50
2023-03-06T13:39:02.309Z,9.60
2023-03-06T13:42:08.607Z,13.60
2023-03-06T13:45:18.018Z,10.60
2023-03-06T13:48:47.832Z,11.93
2023-03-06T13:52:07.825Z,12.97
2023-03-06T13:55:25.729Z,10.07
2023-03-06T13:58:46.469Z,12.13
2023-03-06T14:02:04.352Z,10.87
2023-03-06T14:05:13.482Z,10.73
2023-03-06T14:08:19.904Z,13.60
2023-03-06T14:11:23.806Z,9.67
2023-03-06T14:14:36.108Z,13.87
2023-03-06T14:17:40.047Z,10.67
2023-03-06T14:20:46.668Z,10.80
2023-03-06T14:24:00.707Z,11.30
2023-03-06T14:27:04.876Z,12.03
2023-03-06T14:30:17.894Z,11.10
2023-03-06T14:33:35.217Z,10.00
2023-03-06T14:36:46.057Z,12.47
2023-03-06T14:39:50.679Z,12.20
2023-03-06T14:43:13.309Z,11.00
2023-03-06T14:46:23.711Z,12.90
2023-03-06T14:49:28.098Z,13.37
2023-03-06T14:52:32.191Z,12.27
2023-03-06T14:55:37.844Z,12.80
2023-03-06T14:58:48.014Z,12.93
2023-03-06T15:01:58.447Z,15.87
2023-03-06T15:05:07.214Z,13.00
2023-03-06T15:08:11.189Z,12.77
2023-03-06T15:11:15.292Z,12.00
2023-03-06T15:14:20.662Z,14.60
2023-03-06T15:17:30.117Z,15.33
2023-03-06T15:20:48.597Z,13.73
2023-03-06T15:23:53.295Z,16.13
2023-03-06T15:26:59.513Z,13.33
2023-03-06T15:30:14.986Z,13.40
2023-03-06T15:33:27.652Z,12.80
2023-03-06T15:36:33.140Z,13.93
2023-03-06T15:39:39.647Z,14.00
2023-03-06T15:42:44.335Z,16.00
2023-03-06T15:45:48.269Z,14.73
2023-03-06T15:49:01.071Z,13.90
2023-03-06T15:52:05.833Z,13.27
2023-03-06T15:55:10.706Z,21.97
2023-03-06T15:58:18.297Z,21.50
2023-03-06T16:01:22.543Z,18.20
2023-03-06T16:04:28.006Z,17.47
2023-03-06T16:07:31.915Z,19.47
2023-03-06T16:10:39.612Z,18.63
2023-03-06T16:13:43.496Z,15.10
2023-03-06T16:16:47.675Z,15.17
2023-03-06T16:19:53.284Z,13.70
2023-03-06T16:22:57.599Z,17.03
2023-03-06T16:26:01.530Z,24.67
2023-03-06T16:29:05.725Z,23.83
2023-03-06T16:32:12.826Z,19.07
2023-03-06T16:35:18.804Z,18.40
2023-03-06T16:38:22.747Z,19.27
2023-03-06T16:41:26.740Z,50.30
2023-03-06T16:44:30.626Z,22.00
2023-03-06T16:47:34.399Z,23.27
2023-03-06T16:50:41.860Z,21.87
2023-03-06T16:53:46.409Z,34.13
2023-03-06T16:56:50.383Z,30.53
2023-03-06T16:59:54.328Z,25.63
2023-03-06T17:02:58.192Z,21.50
2023-03-06T17:06:03.849Z,23.67
2023-03-06T17:09:08.080Z,30.33
2023-03-06T17:12:12.104Z,33.63
2023-03-06T17:15:16.071Z,40.87
2023-03-06T17:18:20.011Z,36.90
2023-03-06T17:21:26.948Z,33.57
2023-03-06T17:24:31.029Z,35.93
2023-03-06T17:27:37.802Z,38.77
2023-03-06T17:30:41.723Z,42.03
2023-03-06T17:33:45.703Z,50.93
2023-03-06T17:36:51.089Z,34.97
2023-03-06T17:39:55.298Z,39.83
2023-03-06T17:42:59.233Z,45.13
2023-03-06T17:46:05.242Z,37.07
2023-03-06T17:49:10.212Z,31.43
2023-03-06T17:52:15.585Z,35.50
2023-03-06T17:55:19.459Z,25.97
2023-03-06T17:58:23.342Z,31.47
2023-03-06T18:01:28.753Z,27.63
2023-03-06T18:04:32.676Z,32.27
2023-03-06T18:07:37.942Z,45.40
2023-03-06T18:10:42.585Z,37.93
2023-03-06T18:13:47.683Z,36.93
2023-03-06T18:16:51.700Z,40.70
2023-03-06T18:19:57.008Z,35.87
2023-03-06T18:23:03.916Z,34.40
2023-03-06T18:26:10.579Z,49.33
2023-03-06T18:29:14.586Z,39.70
2023-03-06T18:32:18.355Z,35.60
2023-03-06T18:35:22.689Z,33.83
2023-03-06T18:38:27.930Z,32.60
2023-03-06T18:41:32.667Z,32.33
2023-03-06T18:44:36.441Z,27.33
2023-03-06T18:47:40.736Z,34.17
2023-03-06T18:50:44.623Z,31.67
2023-03-06T18:53:50.130Z,28.67
2023-03-06T18:56:53.948Z,36.30
2023-03-06T18:59:57.808Z,28.17
2023-03-06T19:03:01.476Z,33.73
2023-03-06T19:06:10.700Z,36.43
2023-03-06T19:09:15.985Z,25.27
2023-03-06T19:12:19.828Z,28.63
2023-03-06T19:15:23.663Z,29.87
2023-03-06T19:18:28.904Z,25.17
2023-03-06T19:21:33.068Z,28.33
2023-03-06T19:24:38.324Z,27.60
2023-03-06T19:27:45.009Z,33.07
2023-03-06T19:30:48.693Z,30.40
2023-03-06T19:33:54.132Z,30.23
2023-03-06T19:36:57.921Z,28.80
2023-03-06T19:40:04.036Z,29.83
2023-03-06T19:43:08.061Z,32.93
2023-03-06T19:46:14.395Z,29.83
2023-03-06T19:49:21.921Z,29.20
2023-03-06T19:52:25.863Z,35.57
2023-03-06T19:55:32.082Z,36.00
2023-03-06T19:58:36.060Z,32.73
2023-03-06T20:01:40.708Z,30.07
2023-03-06T20:04:44.625Z,31.60
2023-03-06T20:07:48.493Z,25.07
2023-03-06T20:10:53.825Z,29.23
2023-03-06T20:13:58.592Z,26.50
2023-03-06T20:17:02.631Z,26.63
2023-03-06T20:20:07.449Z,36.33
2023-03-06T20:23:11.616Z,32.30
2023-03-06T20:26:17.981Z,29.03
2023-03-06T20:29:21.972Z,30.13
2023-03-06T20:32:26.059Z,28.50
2023-03-06T20:35:30.038Z,28.67
2023-03-06T20:38:33.783Z,28.87
2023-03-06T20:41:39.302Z,27.57
2023-03-06T20:44:43.072Z,23.37
2023-03-06T20:47:47.534Z,24.70
2023-03-06T20:51:01.382Z,28.83
2023-03-06T20:54:05.818Z,27.27
2023-03-06T20:57:11.106Z,30.53
2023-03-06T21:00:15.657Z,32.13
2023-03-06T21:03:19.419Z,31.00
2023-03-06T21:06:23.405Z,29.50
2023-03-06T21:09:27.342Z,34.97
2023-03-06T21:12:32.547Z,29.10
2023-03-06T21:15:39.240Z,24.40
2023-03-06T21:18:43.175Z,30.13
2023-03-06T21:21:47.036Z,25.17
2023-03-06T21:24:50.878Z,22.50
2023-03-06T21:27:56.470Z,23.37
2023-03-06T21:31:02.051Z,22.03
2023-03-06T21:34:06.495Z,21.40
2023-03-06T21:37:10.360Z,24.73
2023-03-06T21:40:15.495Z,25.30
2023-03-06T21:43:20.833Z,27.30
2023-03-06T21:46:25.179Z,39.13
2023-03-06T21:49:29.719Z,33.10
2023-03-06T21:52:33.494Z,38.40
2023-03-06T21:55:40.812Z,27.67
2023-03-06T21:58:47.402Z,27.97
2023-03-06T22:01:51.578Z,27.40
2023-03-06T22:04:55.590Z,25.33
2023-03-06T22:07:59.978Z,23.57
2023-03-06T22:11:07.713Z,23.47
2023-03-06T22:14:15.059Z,23.57
2023-03-06T22:17:19.094Z,24.23
2023-03-06T22:20:23.096Z,23.50
2023-03-06T22:23:27.182Z,23.53
2023-03-06T22:26:31.784Z,26.33
2023-03-06T22:29:37.456Z,26.80
2023-03-06T22:32:41.496Z,25.67
2023-03-06T22:35:45.302Z,26.53
2023-03-06T22:38:50.189Z,28.63
2023-03-06T22:41:56.633Z,26.70
2023-03-06T22:45:01.773Z,26.20
2023-03-06T22:48:11.028Z,25.97
2023-03-06T22:51:17.785Z,25.53
2023-03-06T22:54:21.720Z,29.77
2023-03-06T22:57:25.912Z,32.50
2023-03-06T23:00:31.499Z,27.50
2023-03-06T23:03:36.266Z,29.43
2023-03-06T23:06:41.479Z,27.20
2023-03-06T23:09:45.231Z,26.33
2023-03-06T23:13:10.444Z,27.93
2023-03-06T23:16:34.489Z,30.03
2023-03-06T23:19:56.693Z,30.77
2023-03-06T23:23:19.145Z,28.27
2023-03-06T23:26:25.091Z,29.77
2023-03-06T23:29:29.052Z,28.57
2023-03-06T23:32:35.087Z,28.93
2023-03-06T23:35:40.179Z,24.83
2023-03-06T23:38:44.572Z,28.27
2023-03-06T23:41:48.400Z,30.57
2023-03-06T23:44:52.518Z,28.73
2023-03-06T23:47:58.195Z,31.73
2023-03-06T23:51:02.231Z,26.80
2023-03-06T23:54:07.206Z,26.17
2023-03-06T23:57:11.253Z,28.53
